• Join FlightAware (Why Join?)
  • Login
  • US Flag 
12:28PM EDT


 

Airport Tracker/Info


-or-


 

Live Flight TrackerFlight Track Log ✈ UAL3732 ✈ 08-Apr-2013 ✈ KIND - KIAD

Flight Track Log - Related Links

Times and Time Zones

All times are in EDT time to prevent confusion due to time zone crossing. See the UAL3732 flight status page for this flight to view local times or setup timezone preferences in your user account.

Time Position Orientation Groundspeed Altitude Reporting Facility
EDT Latitude Longitude Course Direction KTS MPH feet Rate Location/Type
07:42PM 39.7000 -86.3000 201° Southwest 166 191 1,600  Level Indianapolis TRACON
07:42PM 39.6667 -86.3167 201° Southwest 183 211 2,700 2,220 Climbing Indianapolis TRACON
07:43PM 39.6000 -86.3333 191° South 262 302 5,200 2,640 Climbing Indianapolis TRACON
07:44PM 39.6000 -86.2500 90° East 318 366 8,000 2,580 Climbing Indianapolis TRACON
07:46PM 39.6247 -86.1281 75° East 312 359 11,000 2,160 Climbing Indianapolis Center
07:47PM 39.6672 -85.9844 69° East 370 426 12,900 2,040 Climbing Indianapolis Center
07:48PM 39.6806 -85.8436 83° East 390 449 15,300 2,160 Climbing Indianapolis Center
07:49PM 39.6928 -85.6975 84° East 402 463 17,400 1,980 Climbing Indianapolis Center
07:50PM 39.7056 -85.5467 84° East 414 476 19,400 1,740 Climbing Indianapolis Center
07:51PM 39.7186 -85.3897 84° East 430 495 21,000 1,560 Climbing Indianapolis Center
07:52PM 39.7328 -85.2286 83° East 444 511 22,700 960 Climbing Indianapolis Center
07:53PM 39.7458 -85.0578 84° East 468 539 23,000 1,140 Climbing Indianapolis Center
07:54PM 39.7617 -84.8753 84° East 487 560 25,100 1,560 Climbing Indianapolis Center
07:55PM 39.7764 -84.6989 84° East 487 560 26,200 900 Climbing Indianapolis Center
07:56PM 39.7889 -84.5192 85° East 496 571 27,000 900 Climbing Indianapolis Center
07:57PM 39.8033 -84.3333 84° East 510 587 28,100 1,020 Climbing Indianapolis Center
07:58PM 39.8175 -84.1478 84° East 512 589 29,200 840 Climbing Indianapolis Center
07:59PM 39.8317 -83.9592 84° East 519 597 29,900 720 Climbing Indianapolis Center
08:00PM 39.8467 -83.7356 85° East 525 604 30,700 780 Climbing Indianapolis Center
08:01PM 39.8586 -83.5678 85° East 527 606 31,500 780 Climbing Indianapolis Center
08:02PM 39.8722 -83.3664 85° East 534 615 32,400 720 Climbing Indianapolis Center
08:03PM 39.8861 -83.1697 85° East 538 619 33,000 240 Climbing Indianapolis Center
08:04PM 39.8986 -82.9689 85° East 551 634 33,000  Level Indianapolis Center
08:05PM 39.9117 -82.7631 85° East 563 648 33,000  Level Indianapolis Center
08:06PM 39.9264 -82.5225 85° East 566 651 33,000  Level Indianapolis Center
08:07PM 39.9375 -82.3164 86° East 566 651 33,000  Level Indianapolis Center
08:08PM 39.9500 -82.1100 85° East 567 652 33,000  Level Indianapolis Center
08:09PM 39.9617 -81.9028 86° East 568 654 33,000  Level Indianapolis Center
08:10PM 39.9728 -81.6867 86° East 566 651 33,000  Level Indianapolis Center
08:11PM 39.9836 -81.4803 86° East 567 652 33,000  Level Indianapolis Center
08:12PM 39.9928 -81.2758 87° East 563 648 33,000  Level Indianapolis Center
08:13PM 39.9867 -81.1033 93° East 558 642 33,000  Level Cleveland Center
08:14PM 39.9333 -80.9189 111° Southeast 539 620 33,000  Level Cleveland Center
08:15PM 39.8689 -80.7400 115° Southeast 534 615 33,000  Level Cleveland Center
08:16PM 39.8044 -80.5589 115° Southeast 541 623 33,000 -600 Level Cleveland Center
08:17PM 39.7439 -80.3833 114° Southeast 541 623 31,800 -1,500 Descending Cleveland Center
08:19PM 39.6006 -79.9858 115° Southeast 526 605 28,300 -1,440 Descending Indianapolis Center
08:21PM 39.5464 -79.7981 110° East 514 592 27,100 -660 Descending Washington Center
08:22PM 39.5189 -79.6350 102° East 508 585 27,000 -600 Descending Washington Center
08:23PM 39.4872 -79.4558 103° East 508 585 25,900 -1,440 Descending Washington Center
08:24PM 39.4411 -79.2597 107° East 514 592 24,200 -1,500 Descending Washington Center
08:25PM 39.4147 -79.1000 102° East 492 566 22,900 -1,920 Descending Washington Center
08:26PM 39.3878 -78.9508 103° East 453 521 20,400 -2,400 Descending Washington Center
08:27PM 39.3622 -78.8103 103° East 418 481 18,200 -2,160 Descending Washington Center
08:28PM 39.3367 -78.6722 103° East 401 461 16,100 -2,100 Descending Washington Center
08:29PM 39.3131 -78.5344 102° East 396 456 14,100 -2,040 Descending Washington Center
08:30PM 39.2892 -78.4019 103° East 390 449 12,100 -1,500 Descending Washington Center
08:31PM 39.2417 -78.2931 119° Southeast 368 423 11,200 -1,200 Descending Washington Center
08:32PM 39.2083 -78.1900 113° Southeast 329 379 9,800 -1,680 Descending Washington Center
08:33PM 39.2108 -78.0803 88° East 309 356 7,900 -1,680 Descending Washington Center
08:34PM 39.2150 -77.9811 87° East 309 356 6,500 -1,500 Descending Washington Center
08:35PM 39.2211 -77.8742 86° East 304 350 5,000 -780 Descending Washington Center
08:36PM 39.2292 -77.7700 84° East 298 343 5,000 -360 Level Washington Center
08:37PM 39.2353 -77.6683 86° East 292 336 4,300 -1,020 Descending Washington Center
08:38PM 39.2433 -77.5667 84° East 292 336 3,000 -480 Descending Washington Center
08:40PM 39.1667 -77.4333 127° Southeast 237 273 3,000 -180 Level Potomac TRACON
08:42PM 39.0667 -77.4333 180° South 148 170 2,400 -540 Descending Potomac TRACON
08:43PM 39.0167 -77.4333 180° South 139 160 1,500 -720 Descending Potomac TRACON
08:44PM 38.9833 -77.4333 180° South 115 132 1,000 -540 Descending Potomac TRACON
08:46PM 38.9474 -77.4599 165° South  Level Estimated